Time;durP1;ratioP1;P1;durP2;ratioP2;P2;SDS_P1;SDS_P2;PMS_P1;PMS_P2;Temp;Humidity;BMP_temperature;BMP_pressure;BME280_temperature;BME280_humidity;BME280_pressure;Samples;Min_cycle;Max_cycle;Signal;HPM_P1;HPM_P2
2023/10/28 00:01:31;;;;;;;1.15;0.55;;;11.80;99.90;;;;;;5093088;28;20024;-73
2023/10/28 00:03:57;;;;;;;0.40;0.28;;;11.70;99.90;;;;;;5092537;28;20118;-73
2023/10/28 00:06:26;;;;;;;1.33;0.43;;;11.70;99.90;;;;;;5092271;28;20074;-73
2023/10/28 00:08:51;;;;;;;0.75;0.20;;;11.70;99.90;;;;;;5090854;28;20055;-73
2023/10/28 00:11:19;;;;;;;1.55;0.38;;;11.70;99.90;;;;;;5092897;28;20105;-72
2023/10/28 00:13:46;;;;;;;0.10;0.10;;;11.60;99.90;;;;;;5091120;28;20024;-73
2023/10/28 00:16:12;;;;;;;0.38;0.20;;;11.70;99.90;;;;;;5091336;28;20028;-73
2023/10/28 00:18:37;;;;;;;0.57;0.35;;;11.60;99.90;;;;;;5090716;28;20036;-72
2023/10/28 00:21:07;;;;;;;0.40;0.40;;;11.60;99.90;;;;;;5091221;28;20024;-72
2023/10/28 00:23:34;;;;;;;0.50;0.40;;;11.60;99.90;;;;;;5088815;28;20042;-72
2023/10/28 00:26:04;;;;;;;4.10;0.90;;;11.50;99.90;;;;;;5090956;28;20498;-72
2023/10/28 00:28:35;;;;;;;0.30;0.10;;;11.50;99.90;;;;;;5089603;28;20040;-72
2023/10/28 00:31:02;;;;;;;0.10;0.10;;;11.50;99.90;;;;;;5092514;28;20052;-72
2023/10/28 00:33:28;;;;;;;2.50;0.80;;;11.40;99.90;;;;;;5088328;28;20028;-72
2023/10/28 00:35:54;;;;;;;1.70;0.43;;;11.40;99.90;;;;;;5091096;28;20576;-72
2023/10/28 00:38:24;;;;;;;0.13;0.13;;;11.40;99.90;;;;;;5090422;28;20039;-73
2023/10/28 00:40:49;;;;;;;0.20;0.20;;;11.30;99.90;;;;;;5093852;28;20115;-73
2023/10/28 00:43:22;;;;;;;0.15;0.15;;;11.30;99.90;;;;;;5090065;28;20059;-72
2023/10/28 00:45:48;;;;;;;1.13;0.30;;;11.30;99.90;;;;;;5092794;28;20020;-72
2023/10/28 00:48:15;;;;;;;2.00;0.57;;;11.20;99.90;;;;;;5093602;28;20075;-72
2023/10/28 00:50:42;;;;;;;0.00;0.00;;;11.20;99.90;;;;;;5090759;28;20082;-72
2023/10/28 00:53:07;;;;;;;0.40;0.40;;;11.20;99.90;;;;;;5069660;28;20036;-73
2023/10/28 00:55:34;;;;;;;0.38;0.17;;;11.20;99.90;;;;;;5089478;28;20028;-72
2023/10/28 00:58:00;;;;;;;5.10;0.60;;;11.20;99.90;;;;;;5073775;28;20036;-72
2023/10/28 01:00:25;;;;;;;4.13;0.50;;;11.20;99.90;;;;;;5090571;28;20034;-72
2023/10/28 01:02:52;;;;;;;1.83;0.50;;;11.20;99.90;;;;;;5090809;28;20034;-72
2023/10/28 01:05:19;;;;;;;0.28;0.28;;;11.20;99.90;;;;;;5085489;28;20050;-73
2023/10/28 01:07:47;;;;;;;0.10;0.10;;;11.20;99.90;;;;;;5082234;28;20024;-71
2023/10/28 01:10:33;;;;;;;0.10;0.10;;;11.20;99.90;;;;;;5090380;28;20024;-72
2023/10/28 01:12:59;;;;;;;0.95;0.63;;;11.20;99.90;;;;;;5082706;28;20027;-73
2023/10/28 01:15:26;;;;;;;0.10;0.10;;;11.20;99.90;;;;;;5090211;28;20032;-72
2023/10/28 01:17:52;;;;;;;0.73;0.40;;;11.10;99.90;;;;;;5069403;28;20032;-73
2023/10/28 01:20:18;;;;;;;0.77;0.43;;;11.20;99.90;;;;;;5082516;28;20461;-72
2023/10/28 01:22:44;;;;;;;0.65;0.30;;;11.20;99.90;;;;;;5071966;28;20085;-74
2023/10/28 01:25:10;;;;;;;0.25;0.20;;;11.10;99.90;;;;;;5091831;28;20089;-73
2023/10/28 01:27:36;;;;;;;0.10;0.10;;;11.10;99.90;;;;;;5088962;28;20024;-73
2023/10/28 01:30:05;;;;;;;0.80;0.28;;;11.10;99.90;;;;;;5090597;28;20056;-72
2023/10/28 01:32:30;;;;;;;0.73;0.20;;;11.10;99.90;;;;;;5086921;28;20024;-72
2023/10/28 01:34:56;;;;;;;0.03;0.03;;;11.10;99.90;;;;;;5087173;28;20035;-71
2023/10/28 01:37:22;;;;;;;2.55;0.47;;;11.10;99.90;;;;;;5085883;28;20434;-71
2023/10/28 01:39:52;;;;;;;0.75;0.38;;;11.10;99.90;;;;;;5091275;28;20032;-72
2023/10/28 01:42:22;;;;;;;0.20;0.20;;;11.10;99.90;;;;;;5086200;28;20468;-71
2023/10/28 01:44:49;;;;;;;0.55;0.55;;;11.10;99.90;;;;;;5089894;28;20040;-72
2023/10/28 01:47:15;;;;;;;0.22;0.22;;;11.10;99.90;;;;;;5087857;28;20039;-71
2023/10/28 01:49:42;;;;;;;0.10;0.10;;;11.10;99.90;;;;;;5088865;28;20055;-73
2023/10/28 01:52:11;;;;;;;0.20;0.20;;;11.00;99.90;;;;;;5088842;28;20020;-73
2023/10/28 01:54:37;;;;;;;0.88;0.22;;;11.00;99.90;;;;;;5087938;28;20119;-73
2023/10/28 01:57:05;;;;;;;0.10;0.10;;;11.00;99.90;;;;;;5086025;28;20111;-72
2023/10/28 01:59:38;;;;;;;0.25;0.22;;;10.90;99.90;;;;;;5086980;28;20044;-72
2023/10/28 02:02:05;;;;;;;1.30;0.73;;;10.90;99.90;;;;;;5090570;28;20077;-72
2023/10/28 02:04:32;;;;;;;0.05;0.05;;;11.00;99.90;;;;;;5104065;28;20049;-73
2023/10/28 02:07:01;;;;;;;0.20;0.20;;;11.00;99.90;;;;;;5092753;28;20134;-73
2023/10/28 02:09:28;;;;;;;0.10;0.10;;;11.00;99.90;;;;;;5089864;28;20036;-72
2023/10/28 02:11:56;;;;;;;0.30;0.30;;;11.00;99.90;;;;;;5093720;28;20047;-73
2023/10/28 02:14:23;;;;;;;0.00;0.00;;;11.00;99.90;;;;;;5091528;28;20024;-72
2023/10/28 02:16:50;;;;;;;0.13;0.13;;;11.10;99.90;;;;;;5092741;28;20016;-72
2023/10/28 02:19:20;;;;;;;0.17;0.17;;;11.10;99.90;;;;;;5093792;28;20051;-72
2023/10/28 02:21:45;;;;;;;0.17;0.17;;;11.00;99.90;;;;;;5094107;28;20032;-73
2023/10/28 02:24:12;;;;;;;0.30;0.30;;;11.00;99.90;;;;;;5093202;28;20502;-72
2023/10/28 02:26:37;;;;;;;0.10;0.10;;;11.00;99.90;;;;;;5092840;28;20032;-72
2023/10/28 02:29:03;;;;;;;0.00;0.00;;;11.10;99.90;;;;;;5090987;28;20418;-72
2023/10/28 02:31:29;;;;;;;1.10;0.32;;;11.10;99.90;;;;;;5093266;28;20058;-73
2023/10/28 02:33:55;;;;;;;0.25;0.15;;;11.10;99.90;;;;;;5092607;28;20028;-73
2023/10/28 02:36:21;;;;;;;3.05;0.20;;;11.10;99.90;;;;;;5094026;28;20028;-74
2023/10/28 02:38:47;;;;;;;1.33;0.30;;;11.00;99.90;;;;;;5093469;28;20036;-74
2023/10/28 02:41:14;;;;;;;0.65;0.30;;;11.00;99.90;;;;;;5093013;28;20035;-73
2023/10/28 02:43:40;;;;;;;0.03;0.03;;;11.00;99.90;;;;;;5088676;28;20464;-72
2023/10/28 02:46:06;;;;;;;0.10;0.10;;;10.90;99.90;;;;;;5092965;28;20110;-72
2023/10/28 02:48:33;;;;;;;0.10;0.10;;;10.90;99.90;;;;;;5092001;28;20028;-72
2023/10/28 02:51:06;;;;;;;0.20;0.20;;;10.90;99.90;;;;;;5089579;28;20020;-73
2023/10/28 02:53:33;;;;;;;0.52;0.52;;;10.90;99.90;;;;;;5089655;28;20115;-72
2023/10/28 02:56:04;;;;;;;0.38;0.38;;;10.80;99.90;;;;;;5092311;28;20069;-72
2023/10/28 02:58:30;;;;;;;1.97;0.30;;;10.80;99.90;;;;;;5092317;28;20039;-72
2023/10/28 03:00:57;;;;;;;0.50;0.50;;;10.90;99.90;;;;;;5089455;28;20033;-72
2023/10/28 03:03:26;;;;;;;2.08;0.20;;;10.90;99.90;;;;;;5085254;28;20066;-72
2023/10/28 03:05:51;;;;;;;0.32;0.22;;;10.90;99.90;;;;;;5093066;28;20034;-72
2023/10/28 03:08:19;;;;;;;0.45;0.20;;;10.90;99.90;;;;;;5088564;28;20041;-72
2023/10/28 03:10:44;;;;;;;0.30;0.15;;;10.90;99.90;;;;;;5091074;28;20468;-72
2023/10/28 03:13:10;;;;;;;0.28;0.20;;;10.90;99.90;;;;;;5092286;28;20069;-72
2023/10/28 03:15:36;;;;;;;0.22;0.20;;;10.90;99.90;;;;;;5091916;28;20035;-72
2023/10/28 03:18:02;;;;;;;0.10;0.10;;;10.90;99.90;;;;;;5087729;28;20028;-72
2023/10/28 03:20:28;;;;;;;1.35;0.40;;;10.90;99.90;;;;;;5091967;28;20031;-72
2023/10/28 03:22:54;;;;;;;0.55;0.40;;;11.00;99.90;;;;;;5089541;28;20027;-74
2023/10/28 03:25:20;;;;;;;0.38;0.38;;;11.00;99.90;;;;;;5093215;28;20406;-74
2023/10/28 03:27:46;;;;;;;0.38;0.20;;;11.00;99.90;;;;;;5090650;28;20395;-72
2023/10/28 03:30:12;;;;;;;1.23;0.28;;;11.00;99.90;;;;;;5088471;28;20060;-73
2023/10/28 03:32:38;;;;;;;3.33;1.02;;;11.00;99.90;;;;;;5088673;28;20097;-73
2023/10/28 03:35:05;;;;;;;0.10;0.10;;;11.00;99.90;;;;;;5091932;28;20503;-72
2023/10/28 03:37:31;;;;;;;0.43;0.28;;;11.10;99.90;;;;;;5070823;28;20032;-72
2023/10/28 03:39:57;;;;;;;1.17;0.52;;;11.10;99.90;;;;;;5091826;28;20035;-72
2023/10/28 03:42:23;;;;;;;0.52;0.40;;;11.10;99.90;;;;;;5088182;28;20039;-72
2023/10/28 03:44:49;;;;;;;0.45;0.28;;;11.10;99.90;;;;;;5091097;28;20110;-72
2023/10/28 03:47:15;;;;;;;10.05;0.63;;;11.10;99.90;;;;;;5090186;28;20448;-73
2023/10/28 03:49:40;;;;;;;1.15;0.50;;;11.10;99.90;;;;;;5106856;28;20126;-72
2023/10/28 03:52:06;;;;;;;0.63;0.63;;;11.20;99.90;;;;;;5090593;28;20024;-73
2023/10/28 03:54:32;;;;;;;0.45;0.15;;;11.10;99.90;;;;;;5091840;28;20016;-72
2023/10/28 03:56:59;;;;;;;0.10;0.10;;;11.10;99.90;;;;;;5087996;28;20043;-72
2023/10/28 03:59:24;;;;;;;2.45;0.32;;;11.10;99.90;;;;;;5089278;28;20088;-72
2023/10/28 04:01:50;;;;;;;1.30;0.85;;;11.10;99.90;;;;;;5091319;28;20027;-72
2023/10/28 04:04:17;;;;;;;0.30;0.22;;;11.10;99.90;;;;;;5088146;28;20070;-72
2023/10/28 04:06:42;;;;;;;0.60;0.25;;;11.10;99.90;;;;;;5089418;28;20024;-72
2023/10/28 04:09:08;;;;;;;1.35;0.70;;;11.10;99.90;;;;;;5091432;28;20388;-73
2023/10/28 04:11:34;;;;;;;0.75;0.30;;;11.10;99.90;;;;;;5091040;28;20103;-72
2023/10/28 04:13:59;;;;;;;0.20;0.20;;;11.10;99.90;;;;;;5091337;28;20165;-72
2023/10/28 04:16:25;;;;;;;1.15;0.57;;;11.10;99.90;;;;;;5087570;28;20040;-72
2023/10/28 04:18:52;;;;;;;0.20;0.20;;;11.10;99.90;;;;;;5077206;28;20032;-72
2023/10/28 04:21:18;;;;;;;1.50;0.32;;;11.10;99.90;;;;;;5087548;28;20028;-72
2023/10/28 04:23:43;;;;;;;0.65;0.20;;;11.20;99.90;;;;;;5086405;28;20032;-72
2023/10/28 04:26:09;;;;;;;2.17;1.05;;;11.10;99.90;;;;;;5090456;28;20465;-73
2023/10/28 04:28:36;;;;;;;1.83;0.63;;;11.10;99.90;;;;;;5088587;28;20035;-72
2023/10/28 04:31:02;;;;;;;0.30;0.30;;;11.10;99.90;;;;;;5091609;28;20099;-73
2023/10/28 04:33:28;;;;;;;0.52;0.45;;;11.10;99.90;;;;;;5090411;28;20194;-73
2023/10/28 04:35:54;;;;;;;1.27;0.55;;;11.10;99.90;;;;;;5086337;28;20031;-72
2023/10/28 04:38:22;;;;;;;3.80;1.02;;;11.10;99.90;;;;;;5083326;28;20661;-74
2023/10/28 04:40:51;;;;;;;0.43;0.32;;;11.20;99.90;;;;;;5091851;28;20059;-73
2023/10/28 04:43:17;;;;;;;0.43;0.43;;;11.20;99.90;;;;;;5086701;28;20036;-74
2023/10/28 04:45:43;;;;;;;0.20;0.20;;;11.10;99.90;;;;;;5086770;28;20024;-73
2023/10/28 04:48:10;;;;;;;0.70;0.30;;;11.10;99.90;;;;;;5090497;28;20032;-72
2023/10/28 04:50:37;;;;;;;2.05;1.08;;;11.10;99.90;;;;;;5091411;28;20035;-73
2023/10/28 04:53:02;;;;;;;0.10;0.10;;;11.10;99.90;;;;;;5087966;28;20028;-72
2023/10/28 04:55:28;;;;;;;0.50;0.50;;;11.00;99.90;;;;;;5090849;28;20648;-74
2023/10/28 04:57:54;;;;;;;0.15;0.15;;;11.10;99.90;;;;;;5086054;28;20518;-73
2023/10/28 05:00:20;;;;;;;1.40;0.30;;;11.00;99.90;;;;;;5086574;28;20493;-72
2023/10/28 05:02:46;;;;;;;1.23;0.47;;;11.10;99.90;;;;;;5086985;28;20043;-73
2023/10/28 05:05:14;;;;;;;1.20;0.60;;;11.00;99.90;;;;;;5081390;28;20047;-71
2023/10/28 05:07:40;;;;;;;1.65;0.80;;;11.00;99.90;;;;;;5088893;28;20479;-73
2023/10/28 05:10:09;;;;;;;0.20;0.20;;;10.90;99.90;;;;;;5086222;28;20024;-72
2023/10/28 05:12:35;;;;;;;0.75;0.45;;;10.80;99.90;;;;;;5089009;28;20028;-72
2023/10/28 05:15:02;;;;;;;4.03;0.73;;;10.80;99.90;;;;;;5086450;28;20099;-72
2023/10/28 05:17:27;;;;;;;0.60;0.43;;;10.80;99.90;;;;;;5081742;28;20029;-74
2023/10/28 05:19:53;;;;;;;0.40;0.40;;;10.80;99.90;;;;;;5069550;28;20408;-75
2023/10/28 05:22:19;;;;;;;0.47;0.35;;;10.80;99.90;;;;;;5083584;28;20039;-75
2023/10/28 05:24:45;;;;;;;0.52;0.30;;;10.80;99.90;;;;;;5089921;28;20154;-75
2023/10/28 05:27:11;;;;;;;14.63;1.40;;;10.80;99.90;;;;;;5089233;28;20127;-74
2023/10/28 05:29:38;;;;;;;0.15;0.15;;;10.70;99.90;;;;;;5089480;28;20024;-74
2023/10/28 05:32:04;;;;;;;2.05;1.05;;;10.70;99.90;;;;;;5091044;28;20020;-76
2023/10/28 05:34:30;;;;;;;1.15;0.40;;;10.80;99.90;;;;;;5088072;28;20451;-76
2023/10/28 05:36:56;;;;;;;1.63;0.93;;;10.80;99.90;;;;;;5085941;28;20033;-75
2023/10/28 05:39:21;;;;;;;2.72;0.43;;;10.80;99.90;;;;;;5086452;28;20105;-74
2023/10/28 05:41:48;;;;;;;12.15;1.75;;;10.90;99.90;;;;;;5093849;28;20051;-75
2023/10/28 05:44:14;;;;;;;0.10;0.10;;;10.90;99.90;;;;;;5090431;28;20036;-73
2023/10/28 05:46:41;;;;;;;15.18;0.90;;;11.00;99.90;;;;;;5090127;28;20426;-74
2023/10/28 05:49:07;;;;;;;0.50;0.30;;;10.90;99.90;;;;;;5086291;28;20021;-74
2023/10/28 05:51:36;;;;;;;3.03;0.20;;;11.00;99.90;;;;;;5098869;28;20042;-72
2023/10/28 05:54:03;;;;;;;0.38;0.30;;;11.10;99.90;;;;;;5098401;28;20019;-72
2023/10/28 05:56:30;;;;;;;0.90;0.30;;;11.10;99.90;;;;;;5104261;28;20050;-72
2023/10/28 05:58:58;;;;;;;0.82;0.52;;;11.10;99.90;;;;;;5106059;28;20111;-72
2023/10/28 06:01:25;;;;;;;0.40;0.32;;;11.20;99.90;;;;;;5096162;28;20019;-71
2023/10/28 06:03:50;;;;;;;2.15;1.25;;;11.20;99.90;;;;;;5090697;28;20044;-72
2023/10/28 06:06:16;;;;;;;0.95;0.45;;;11.20;99.90;;;;;;5093399;28;20503;-72
2023/10/28 06:08:42;;;;;;;4.68;1.85;;;11.20;99.90;;;;;;5104400;28;20070;-71
2023/10/28 06:11:09;;;;;;;2.00;1.05;;;11.20;99.90;;;;;;5097485;28;20484;-71
2023/10/28 06:13:36;;;;;;;6.15;0.65;;;11.20;99.90;;;;;;5093839;28;20145;-72
2023/10/28 06:16:02;;;;;;;1.20;0.32;;;11.30;99.90;;;;;;5112834;28;20065;-71
2023/10/28 06:18:29;;;;;;;1.33;0.52;;;11.30;99.90;;;;;;5108575;28;20119;-71
2023/10/28 06:20:55;;;;;;;2.10;0.38;;;11.30;99.90;;;;;;5105004;28;20402;-71
2023/10/28 06:23:21;;;;;;;1.60;0.77;;;11.40;99.90;;;;;;5097827;28;20499;-71
2023/10/28 06:25:47;;;;;;;8.07;0.77;;;11.40;99.90;;;;;;5100435;28;20028;-72
2023/10/28 06:28:12;;;;;;;10.88;1.17;;;11.40;99.90;;;;;;5108192;28;20039;-72
2023/10/28 06:30:58;;;;;;;0.77;0.55;;;11.40;99.90;;;;;;5094798;28;20032;-72
2023/10/28 06:33:24;;;;;;;1.23;0.40;;;11.40;99.90;;;;;;5096643;28;20044;-72
2023/10/28 06:35:50;;;;;;;0.88;0.38;;;11.40;99.90;;;;;;5113882;28;20030;-71
2023/10/28 06:38:17;;;;;;;0.60;0.45;;;11.40;99.90;;;;;;5105851;28;20031;-71
2023/10/28 06:40:43;;;;;;;0.10;0.10;;;11.50;99.90;;;;;;5112561;28;20120;-70
2023/10/28 06:43:11;;;;;;;0.52;0.43;;;11.50;99.90;;;;;;5101425;28;20019;-71
2023/10/28 06:45:36;;;;;;;0.73;0.57;;;11.40;99.90;;;;;;5094579;28;20119;-72
2023/10/28 06:48:03;;;;;;;0.52;0.30;;;11.50;99.90;;;;;;5093932;28;20432;-71
2023/10/28 06:50:29;;;;;;;7.97;2.15;;;11.50;99.90;;;;;;5092579;28;20434;-71
2023/10/28 06:52:56;;;;;;;6.35;0.75;;;11.50;99.90;;;;;;5081864;28;20024;-71
2023/10/28 06:55:22;;;;;;;1.75;0.50;;;11.50;99.90;;;;;;5112561;28;20100;-71
2023/10/28 06:57:48;;;;;;;3.38;0.60;;;11.50;99.90;;;;;;5095249;28;20103;-71
2023/10/28 07:00:15;;;;;;;3.30;0.73;;;11.50;99.90;;;;;;5101992;28;20028;-70
2023/10/28 07:02:42;;;;;;;0.70;0.30;;;11.60;99.90;;;;;;5097362;28;20100;-70
2023/10/28 07:05:08;;;;;;;2.00;0.50;;;11.50;99.90;;;;;;5103938;28;20058;-70
2023/10/28 07:07:36;;;;;;;1.27;0.20;;;11.60;99.90;;;;;;5094350;28;20024;-70
2023/10/28 07:10:02;;;;;;;7.82;0.40;;;11.60;99.90;;;;;;5113549;28;20085;-71
2023/10/28 07:12:30;;;;;;;0.90;0.50;;;11.60;99.90;;;;;;5106030;28;20024;-71
2023/10/28 07:14:56;;;;;;;4.25;0.80;;;11.60;99.90;;;;;;5086267;28;20024;-71
2023/10/28 07:17:22;;;;;;;0.85;0.40;;;11.60;99.90;;;;;;5102126;28;20867;-72
2023/10/28 07:19:49;;;;;;;0.70;0.40;;;11.70;99.90;;;;;;5100862;28;20042;-71
2023/10/28 07:22:22;;;;;;;1.80;0.95;;;11.60;99.90;;;;;;5099236;28;20030;-71
2023/10/28 07:24:49;;;;;;;0.50;0.43;;;11.60;99.90;;;;;;5101320;28;20039;-70
2023/10/28 07:27:15;;;;;;;0.43;0.30;;;11.60;99.90;;;;;;5107345;28;20023;-70
2023/10/28 07:29:42;;;;;;;4.30;0.55;;;11.60;99.90;;;;;;5100537;28;20084;-70
2023/10/28 07:32:09;;;;;;;1.85;0.98;;;11.60;99.90;;;;;;5101188;28;20052;-70
2023/10/28 07:34:35;;;;;;;0.40;0.30;;;11.60;99.90;;;;;;5101663;28;20036;-70
2023/10/28 07:37:03;;;;;;;1.38;0.57;;;11.60;99.90;;;;;;5099261;28;20032;-71
2023/10/28 07:39:30;;;;;;;0.80;0.30;;;11.50;99.90;;;;;;5092677;28;20506;-71
2023/10/28 07:41:58;;;;;;;7.35;0.52;;;11.60;99.90;;;;;;5091445;28;20460;-70
2023/10/28 07:44:24;;;;;;;0.55;0.50;;;11.60;99.90;;;;;;5098110;28;20180;-70
2023/10/28 07:46:50;;;;;;;0.32;0.30;;;11.60;99.90;;;;;;5099604;28;20028;-70
2023/10/28 07:49:16;;;;;;;0.90;0.47;;;11.70;99.90;;;;;;5097358;28;20039;-71
2023/10/28 07:51:42;;;;;;;3.25;0.60;;;11.70;99.90;;;;;;5090846;28;20024;-70
2023/10/28 07:54:10;;;;;;;1.98;0.50;;;11.70;99.90;;;;;;5096241;28;20024;-70
2023/10/28 07:56:36;;;;;;;3.08;0.50;;;11.70;99.90;;;;;;5094559;28;20032;-71
2023/10/28 07:59:02;;;;;;;0.70;0.45;;;11.80;99.90;;;;;;5095169;28;20024;-71
2023/10/28 08:01:29;;;;;;;0.85;0.35;;;11.70;99.90;;;;;;5111361;28;20035;-71
2023/10/28 08:03:56;;;;;;;1.15;0.40;;;11.80;99.90;;;;;;5097686;28;20024;-70
2023/10/28 08:06:23;;;;;;;0.93;0.30;;;11.90;99.90;;;;;;5100030;28;20153;-70
2023/10/28 08:08:49;;;;;;;4.82;1.20;;;11.80;99.90;;;;;;5095221;28;20031;-71
2023/10/28 08:11:18;;;;;;;0.57;0.32;;;11.80;99.90;;;;;;5092397;28;20016;-71
2023/10/28 08:13:44;;;;;;;1.27;0.30;;;11.80;99.90;;;;;;5090511;28;20031;-72
2023/10/28 08:16:11;;;;;;;2.38;1.13;;;11.80;99.90;;;;;;5090166;28;20046;-71
2023/10/28 08:18:40;;;;;;;0.65;0.50;;;11.70;99.90;;;;;;5103271;28;20514;-71
2023/10/28 08:21:09;;;;;;;1.08;0.22;;;11.70;99.90;;;;;;5103909;28;20028;-70
2023/10/28 08:23:38;;;;;;;0.70;0.20;;;11.80;99.90;;;;;;5098024;28;20031;-70
2023/10/28 08:26:07;;;;;;;0.47;0.40;;;11.80;99.90;;;;;;5112205;28;20035;-70
2023/10/28 08:28:33;;;;;;;0.20;0.20;;;11.90;99.90;;;;;;5089767;28;20033;-71
2023/10/28 08:30:58;;;;;;;1.10;0.30;;;11.90;99.90;;;;;;5104458;28;20043;-71
2023/10/28 08:33:24;;;;;;;2.50;0.43;;;11.90;99.90;;;;;;5094473;28;20483;-72
2023/10/28 08:35:51;;;;;;;0.47;0.40;;;12.00;99.90;;;;;;5094020;28;20020;-70
2023/10/28 08:38:17;;;;;;;1.65;0.85;;;12.10;99.90;;;;;;5099284;28;20028;-71
2023/10/28 08:40:47;;;;;;;3.00;0.93;;;12.20;99.90;;;;;;5107258;28;20027;-71
2023/10/28 08:43:22;;;;;;;8.35;0.60;;;12.30;99.90;;;;;;5096623;28;20039;-70
2023/10/28 08:45:48;;;;;;;4.45;1.00;;;12.20;99.90;;;;;;5102767;28;20024;-71
2023/10/28 08:48:18;;;;;;;0.57;0.40;;;12.30;99.90;;;;;;5105057;28;20420;-72
2023/10/28 08:50:51;;;;;;;3.90;1.05;;;12.40;99.90;;;;;;5108849;28;20557;-71
2023/10/28 08:53:18;;;;;;;5.72;0.28;;;12.40;99.90;;;;;;5096723;28;20508;-70
2023/10/28 08:55:48;;;;;;;6.80;1.75;;;12.30;99.90;;;;;;5108081;28;20016;-71
2023/10/28 08:58:16;;;;;;;0.57;0.25;;;12.50;99.90;;;;;;5092935;28;20036;-71
2023/10/28 09:00:43;;;;;;;0.28;0.28;;;12.50;99.90;;;;;;5091354;28;20109;-72
2023/10/28 09:03:10;;;;;;;3.95;0.30;;;12.60;99.90;;;;;;5099994;28;20447;-71
2023/10/28 09:05:38;;;;;;;0.82;0.60;;;12.70;99.90;;;;;;5090089;28;20553;-72
2023/10/28 09:08:04;;;;;;;0.30;0.20;;;12.90;99.90;;;;;;5098289;28;20412;-72
2023/10/28 09:10:34;;;;;;;1.40;0.57;;;13.00;99.90;;;;;;5098369;28;20024;-72
2023/10/28 09:13:06;;;;;;;0.52;0.30;;;13.20;99.90;;;;;;5097503;28;20385;-70
2023/10/28 09:15:37;;;;;;;6.50;0.80;;;13.30;99.90;;;;;;5089446;28;20580;-70
2023/10/28 09:18:03;;;;;;;2.38;0.80;;;13.30;99.90;;;;;;5093463;28;20363;-71
2023/10/28 09:20:29;;;;;;;2.20;0.75;;;13.30;99.90;;;;;;5081224;28;20051;-70
2023/10/28 09:22:55;;;;;;;3.10;0.55;;;13.50;99.90;;;;;;5086938;28;20035;-71
2023/10/28 09:25:21;;;;;;;5.05;0.90;;;13.70;99.90;;;;;;5097981;28;20115;-71
2023/10/28 09:27:48;;;;;;;1.80;0.38;;;13.70;99.90;;;;;;5101444;28;20118;-70
2023/10/28 09:30:15;;;;;;;6.43;0.47;;;13.90;99.90;;;;;;5100082;28;20072;-70
2023/10/28 09:32:41;;;;;;;3.40;0.95;;;13.90;99.90;;;;;;5099377;28;20493;-70
2023/10/28 09:35:11;;;;;;;2.63;0.80;;;14.20;99.90;;;;;;5094170;28;20032;-71
2023/10/28 09:37:39;;;;;;;1.02;0.63;;;14.20;99.90;;;;;;5089987;28;20057;-71
2023/10/28 09:40:08;;;;;;;1.00;0.55;;;14.20;99.90;;;;;;5093334;28;20055;-71
2023/10/28 09:42:37;;;;;;;0.57;0.40;;;14.30;99.90;;;;;;5077887;28;20035;-71
2023/10/28 09:45:08;;;;;;;13.45;2.42;;;14.60;99.90;;;;;;5097839;28;20054;-71
2023/10/28 09:47:58;;;;;;;1.60;0.47;;;14.80;99.90;;;;;;5104055;28;20040;-72
2023/10/28 09:50:25;;;;;;;1.57;0.63;;;15.40;99.90;;;;;;5100618;28;20035;-71
2023/10/28 09:52:58;;;;;;;4.82;0.68;;;17.20;99.90;;;;;;5098206;28;20028;-71
2023/10/28 09:55:32;;;;;;;0.55;0.30;;;17.70;99.90;;;;;;5095656;28;20027;-71
2023/10/28 09:58:09;;;;;;;3.28;0.82;;;16.70;99.90;;;;;;5064520;28;20411;-71
2023/10/28 10:00:38;;;;;;;8.38;0.77;;;15.60;99.90;;;;;;5103472;28;20451;-71
2023/10/28 10:03:54;;;;;;;0.95;0.30;;;15.40;99.90;;;;;;5105524;28;20059;-71
2023/10/28 10:06:21;;;;;;;2.58;0.50;;;15.60;99.90;;;;;;5059721;28;20040;-70
2023/10/28 10:08:52;;;;;;;0.22;0.17;;;15.50;99.90;;;;;;5108466;28;20036;-71
2023/10/28 10:11:25;;;;;;;7.38;1.05;;;15.30;99.90;;;;;;5097821;28;20357;-71
2023/10/28 10:13:51;;;;;;;0.93;0.47;;;15.00;99.90;;;;;;5091836;28;20401;-72
2023/10/28 10:16:52;;;;;;;0.98;0.30;;;14.90;99.90;;;;;;5106091;28;20024;-71
2023/10/28 10:19:31;;;;;;;3.50;1.57;;;14.70;99.90;;;;;;5095489;28;20023;-75
2023/10/28 10:21:57;;;;;;;6.60;0.45;;;14.60;99.90;;;;;;5106487;28;20114;-73
2023/10/28 10:24:24;;;;;;;2.70;0.40;;;14.50;99.90;;;;;;5091527;28;20119;-72
2023/10/28 10:27:03;;;;;;;1.65;0.95;;;14.50;99.90;;;;;;5098056;28;20028;-72
2023/10/28 10:29:42;;;;;;;8.50;0.90;;;14.60;99.90;;;;;;5097045;28;20028;-72
2023/10/28 10:32:17;;;;;;;6.55;0.80;;;14.50;99.90;;;;;;5099099;28;20149;-73
2023/10/28 10:34:45;;;;;;;2.28;0.80;;;14.50;99.90;;;;;;5105204;28;20503;-71
2023/10/28 10:37:26;;;;;;;6.57;0.82;;;14.50;99.90;;;;;;5106547;28;20024;-70
2023/10/28 10:39:57;;;;;;;4.68;2.70;;;14.50;99.90;;;;;;5108600;28;20127;-72
2023/10/28 10:42:25;;;;;;;1.45;0.38;;;14.60;99.90;;;;;;5094065;28;20040;-74
2023/10/28 10:44:52;;;;;;;3.60;1.05;;;14.50;99.90;;;;;;5096539;28;20387;-70
2023/10/28 10:47:21;;;;;;;3.30;0.90;;;14.40;99.90;;;;;;5105958;28;20039;-72
2023/10/28 10:49:49;;;;;;;3.97;0.57;;;14.50;99.90;;;;;;5109495;28;20024;-71
2023/10/28 10:52:15;;;;;;;1.77;0.70;;;14.60;99.90;;;;;;5105193;28;20115;-69
2023/10/28 10:54:40;;;;;;;1.27;0.50;;;14.60;99.90;;;;;;5103809;28;20175;-69
2023/10/28 10:57:10;;;;;;;11.27;0.85;;;14.60;99.90;;;;;;5095628;28;20028;-72
2023/10/28 10:59:40;;;;;;;0.98;0.50;;;14.60;99.90;;;;;;5099091;28;20535;-70
2023/10/28 11:02:06;;;;;;;7.97;1.87;;;14.50;99.90;;;;;;5108210;28;20039;-71
2023/10/28 11:04:34;;;;;;;0.65;0.40;;;14.40;99.90;;;;;;5094445;28;20373;-70
2023/10/28 11:07:02;;;;;;;11.95;0.85;;;14.60;99.90;;;;;;5090734;28;20032;-73
2023/10/28 11:09:29;;;;;;;1.60;0.38;;;14.60;99.90;;;;;;5086009;28;20468;-71
2023/10/28 11:11:55;;;;;;;0.60;0.20;;;14.60;99.90;;;;;;5097758;28;20036;-71
2023/10/28 11:14:21;;;;;;;5.55;0.50;;;14.60;99.90;;;;;;5104235;28;20024;-70
2023/10/28 11:16:47;;;;;;;6.97;0.98;;;14.50;99.90;;;;;;5093251;28;20043;-71
2023/10/28 11:19:13;;;;;;;3.17;0.50;;;14.50;99.90;;;;;;5098983;28;20534;-72
2023/10/28 11:21:42;;;;;;;1.60;0.43;;;14.50;99.90;;;;;;5106214;28;20027;-73
2023/10/28 11:24:11;;;;;;;2.88;0.50;;;14.30;99.90;;;;;;5108881;28;20028;-71
2023/10/28 11:26:37;;;;;;;2.20;0.63;;;14.30;99.90;;;;;;5084490;28;20035;-73
2023/10/28 11:29:04;;;;;;;0.65;0.45;;;14.30;99.90;;;;;;5098497;28;20447;-70
2023/10/28 11:31:31;;;;;;;0.73;0.30;;;14.40;99.90;;;;;;5084412;28;20029;-73
2023/10/28 11:33:59;;;;;;;2.17;0.43;;;14.30;99.90;;;;;;5072694;28;20077;-72
2023/10/28 11:36:25;;;;;;;2.17;0.40;;;14.20;99.90;;;;;;5095579;28;20048;-71
2023/10/28 11:38:52;;;;;;;0.95;0.30;;;14.20;99.90;;;;;;5104300;28;20028;-72
2023/10/28 11:41:21;;;;;;;2.85;0.50;;;14.20;99.90;;;;;;5092911;28;20032;-71
2023/10/28 11:43:51;;;;;;;1.45;0.80;;;14.00;99.90;;;;;;5096836;28;20031;-71
2023/10/28 11:46:16;;;;;;;10.85;0.77;;;14.00;99.90;;;;;;5090849;28;20051;-72
2023/10/28 11:48:45;;;;;;;3.65;0.95;;;14.00;99.90;;;;;;5101205;28;20027;-70
2023/10/28 11:51:13;;;;;;;5.47;1.02;;;14.00;99.90;;;;;;5095644;28;20116;-73
2023/10/28 11:53:44;;;;;;;7.20;0.65;;;14.00;99.90;;;;;;5095015;28;20380;-72
2023/10/28 11:56:11;;;;;;;11.50;0.57;;;13.90;99.90;;;;;;5097312;28;20024;-70
2023/10/28 11:58:36;;;;;;;2.22;0.82;;;13.70;99.90;;;;;;5109808;28;20028;-72
2023/10/28 12:01:02;;;;;;;2.90;0.50;;;13.60;99.90;;;;;;5108553;28;20034;-71
2023/10/28 12:03:28;;;;;;;13.43;1.02;;;13.60;99.90;;;;;;5100772;28;20472;-71
2023/10/28 12:05:54;;;;;;;6.10;0.57;;;13.70;99.90;;;;;;5106069;28;20047;-72
2023/10/28 12:08:20;;;;;;;1.25;0.50;;;13.60;99.90;;;;;;5097391;28;20060;-72
2023/10/28 12:10:46;;;;;;;1.48;1.10;;;13.60;99.90;;;;;;5092756;28;20063;-72
2023/10/28 12:13:18;;;;;;;3.30;1.13;;;13.50;99.90;;;;;;5106500;28;20020;-72
2023/10/28 12:15:44;;;;;;;7.28;0.43;;;13.50;99.90;;;;;;5099920;28;20443;-72
2023/10/28 12:18:12;;;;;;;6.07;0.57;;;13.60;99.90;;;;;;5097809;28;20026;-72
2023/10/28 12:20:40;;;;;;;5.35;1.13;;;13.60;99.90;;;;;;5090633;28;20071;-72
2023/10/28 12:23:09;;;;;;;0.75;0.52;;;13.60;99.90;;;;;;5096373;28;20023;-73
2023/10/28 12:25:35;;;;;;;4.20;1.20;;;13.60;99.90;;;;;;5091404;28;20477;-71
2023/10/28 12:28:00;;;;;;;1.85;0.40;;;13.60;99.90;;;;;;5103428;28;20031;-72
2023/10/28 12:30:27;;;;;;;6.32;0.85;;;13.60;99.90;;;;;;5109240;28;20356;-72
2023/10/28 12:32:52;;;;;;;14.90;1.02;;;13.60;99.90;;;;;;5099810;28;20019;-72
2023/10/28 12:35:19;;;;;;;6.45;0.35;;;13.50;99.90;;;;;;5092271;28;20464;-72
2023/10/28 12:37:45;;;;;;;7.18;0.98;;;13.60;99.90;;;;;;5090686;28;20107;-71
2023/10/28 12:40:11;;;;;;;7.05;0.80;;;13.60;99.90;;;;;;5105517;28;20106;-71
2023/10/28 12:42:37;;;;;;;6.40;0.98;;;13.60;99.90;;;;;;5106579;28;20552;-71
2023/10/28 12:45:04;;;;;;;0.95;0.15;;;13.50;99.90;;;;;;5103037;28;20452;-71
2023/10/28 12:47:36;;;;;;;2.08;1.08;;;13.50;99.90;;;;;;5085816;28;20085;-72